Lafayette, IN (47901)

7:06 PM EDT on June 02, 2015 (GMT -0400)
CUMBERLAND AVE | | Change Station
CLOSE
Current Station
Personal Weather Station
Location: West Lafayette, IN
Elevation: 712 ft
Nearby Weather Stations
Active Advisory: Flood Warning

Elev 712 ft 40.46 °N, 86.90 °W | Updated 36 seconds ago

Clear
Clear
69.2 °F
Feels Like 69.2 °F
N
3.0
Wind Variable Wind from East
Gusts 7.0 mph

Today
High -- | Low -- °F
--% Chance of Precip.
Yesterday
High -- | Low -- °F
Precip. -- in
6:19 AM 9:12 PM
Full, 100% visible
Pressure 30.07 in
Visibility 10.0 miles
Clouds Clear
Dew Point 57 °F
Humidity 65%
Rainfall 0.00 in
Snow Depth Not available.
UV 0.9 out of 12
Pollen 8.10 out of 12
Air Quality Not available.
Flu Activity No Activity
METAR KLAF 022254Z 11009KT 10SM CLR 20/12 A3007 RMK AO2 SLP182 T02000122

More Conditions Fewer Conditions

Pressure 30.07 in
Visibility 10.0 miles
Clouds Clear
Dew Point 57 °F
Humidity 65%
Rainfall 0.00 in
Snow Depth Not available.
UV 0.9 out of 12
Pollen 8.10 out of 12
Air Quality Not available.
Flu Activity No Activity
METAR KLAF 022254Z 11009KT 10SM CLR 20/12 A3007 RMK AO2 SLP182 T02000122

More Conditions Fewer Conditions

10-Day Weather Forecast

×

Almanac

Astronomy

Jun. 02, 2015 Rise Set
Actual Time
Civil Twilight
Nautical Twilight
Astronomical Twilight
Moon
Length of Visible Light
Length of Day
Tomorrow will be .
, % of the Moon is Illuminated

Today's Extremes

State Highs State Lows

Community

WunderPhotos

Upload Photos

1,826,053 photos uploaded!

WunderBlogs® & News

Nearby

Air Quality

  Air Quality AQ Index Pollutant
Not available.

Snow Depth

Station Depth Elevation

Earthquake Activity

City Distance Mag. Time & Date
Minimum magnitude displayed is 2.5.

Coastal Water Temperatures

Place Temperature

Stations

Nearby Weather Stations

Station Location Temp. Windchill Dew Point Humidity Wind Precip. Elev Updated Type
                   
Flood Warning
Statement as of 11:15 AM EDT on June 02, 2015

The Flood Warning continues for
the Wabash River at Lafayette.
* Until late Wednesday night.
* At 10:46 am Tuesday the stage was 13.3 feet.
* Flood stage is 11.0 feet.
* Minor flooding is occurring and minor flooding is forecast.
* Forecast... the river will continue rising to near 13.4 feet by this
afternoon. The river will fall below flood stage tomorrow
afternoon.
* At 14.0 feet... lowland flooding is in progress. High water affects
river Cabins near north 9th street. Low County roads are nearly
impassable. Tapawingo park in West Lafayette begins to flood.


Lat... Lon 4056 8673 4048 8688 4040 8709 4033 8709
      4040 8688 4054 8670